createdAt,value
2022-11-05T00:00:36.519Z,100712.81
2022-11-05T00:03:03.154Z,100725.38
2022-11-05T00:05:31.066Z,100718.44
2022-11-05T00:07:59.852Z,100706.88
2022-11-05T00:10:30.462Z,100687.72
2022-11-05T00:12:59.339Z,100677.53
2022-11-05T00:15:25.921Z,100732.56
2022-11-05T00:17:52.692Z,100731.72
2022-11-05T00:20:19.233Z,100731.88
2022-11-05T00:22:46.032Z,100733.03
2022-11-05T00:25:13.046Z,100732.81
2022-11-05T00:27:41.164Z,100736.50
2022-11-05T00:30:08.808Z,100743.72
2022-11-05T00:32:36.600Z,100752.78
2022-11-05T00:35:03.454Z,100757.44
2022-11-05T00:37:30.176Z,100756.81
2022-11-05T00:39:56.786Z,100765.81
2022-11-05T00:42:23.406Z,100768.56
2022-11-05T00:44:51.460Z,100780.03
2022-11-05T00:47:18.308Z,100764.81
2022-11-05T00:49:45.071Z,100769.75
2022-11-05T00:52:11.671Z,100777.13
2022-11-05T00:54:38.323Z,100782.63
2022-11-05T00:57:05.007Z,100781.03
2022-11-05T00:59:31.569Z,100782.13
2022-11-05T01:01:59.702Z,100788.44
2022-11-05T01:04:26.401Z,100777.16
2022-11-05T01:06:52.937Z,100778.22
2022-11-05T01:09:19.470Z,100798.81
2022-11-05T01:11:46.322Z,100793.75
2022-11-05T01:14:15.150Z,100799.38
2022-11-05T01:16:42.225Z,100800.78
2022-11-05T01:19:11.034Z,100807.31
2022-11-05T01:21:38.021Z,100800.63
2022-11-05T01:24:05.238Z,100801.47
2022-11-05T01:26:31.776Z,100803.56
2022-11-05T01:28:59.018Z,100755.72
2022-11-05T01:31:26.281Z,100793.28
2022-11-05T01:33:52.829Z,100817.19
2022-11-05T01:36:20.741Z,100820.91
2022-11-05T01:38:47.265Z,100822.47
2022-11-05T01:41:13.857Z,100830.88
2022-11-05T01:43:49.039Z,100832.75
2022-11-05T01:46:19.563Z,100832.16
2022-11-05T01:48:48.287Z,100837.28
2022-11-05T01:51:18.288Z,100831.09
2022-11-05T01:53:50.822Z,100835.41
2022-11-05T01:56:22.787Z,100830.88
2022-11-05T01:58:54.596Z,100836.00
2022-11-05T02:01:21.652Z,100841.16
2022-11-05T02:03:50.416Z,100845.97
2022-11-05T02:06:18.473Z,100836.75
2022-11-05T02:08:55.856Z,100811.88
2022-11-05T02:11:22.970Z,100855.44
2022-11-05T02:13:50.481Z,100854.59
2022-11-05T02:16:27.300Z,100729.97
2022-11-05T02:19:00.108Z,100866.09
2022-11-05T02:22:12.191Z,100854.66
2022-11-05T02:25:00.164Z,100856.34
2022-11-05T02:27:58.969Z,100849.19
2022-11-05T02:30:38.371Z,100844.13
2022-11-05T02:33:16.644Z,100807.94
2022-11-05T02:36:15.220Z,100852.63
2022-11-05T02:38:51.088Z,100860.19
2022-11-05T02:41:24.438Z,100864.38
2022-11-05T02:44:02.940Z,100851.91
2022-11-05T02:46:43.864Z,100866.56
2022-11-05T02:49:22.110Z,100870.03
2022-11-05T02:51:55.145Z,100871.72
2022-11-05T02:54:28.951Z,100871.59
2022-11-05T02:56:59.134Z,100847.16
2022-11-05T02:59:25.736Z,100875.19
2022-11-05T03:01:54.779Z,100879.03
2022-11-05T03:04:23.589Z,100866.38
2022-11-05T03:07:14.261Z,100873.44
2022-11-05T03:10:37.916Z,100875.84
2022-11-05T03:13:15.366Z,100874.19
2022-11-05T03:15:52.265Z,100876.06
2022-11-05T03:18:28.958Z,100845.84
2022-11-05T03:21:02.983Z,100872.38
2022-11-05T03:23:35.511Z,100877.50
2022-11-05T03:26:07.595Z,100879.19
2022-11-05T03:28:39.885Z,100868.81
2022-11-05T03:31:07.842Z,100873.53
2022-11-05T03:33:38.544Z,100874.72
2022-11-05T03:36:11.815Z,100869.56
2022-11-05T03:38:42.144Z,100880.66
2022-11-05T03:41:11.828Z,100877.03
2022-11-05T03:43:43.045Z,100881.78
2022-11-05T03:46:12.166Z,100886.50
2022-11-05T03:48:45.347Z,100864.75
2022-11-05T03:51:18.550Z,100767.53
2022-11-05T03:53:49.848Z,100902.47
2022-11-05T03:56:23.997Z,100895.47
2022-11-05T03:58:57.577Z,100909.00
2022-11-05T04:01:25.648Z,100912.59
2022-11-05T04:03:53.633Z,100859.19
2022-11-05T04:06:20.250Z,100877.13
2022-11-05T04:08:46.846Z,100895.81
2022-11-05T04:11:13.497Z,100921.53
2022-11-05T04:13:40.046Z,100911.97
2022-11-05T04:16:07.081Z,100918.06
2022-11-05T04:18:33.624Z,100922.59
2022-11-05T04:21:01.656Z,100897.53
2022-11-05T04:23:28.171Z,100922.50
2022-11-05T04:25:55.252Z,100913.69
2022-11-05T04:28:21.804Z,100925.03
2022-11-05T04:30:48.500Z,100937.19
2022-11-05T04:33:16.371Z,100932.66
2022-11-05T04:35:44.720Z,100930.03
2022-11-05T04:38:14.082Z,100932.47
2022-11-05T04:40:41.907Z,100911.47
2022-11-05T04:43:15.194Z,100937.81
2022-11-05T04:45:42.391Z,100949.53
2022-11-05T04:48:09.171Z,100919.78
2022-11-05T04:50:35.877Z,100941.09
2022-11-05T04:53:02.803Z,100945.66
2022-11-05T04:55:30.724Z,100910.59
2022-11-05T04:57:57.241Z,100943.31
2022-11-05T05:00:24.503Z,100873.59
2022-11-05T05:02:50.996Z,100946.19
2022-11-05T05:05:17.790Z,100950.69
2022-11-05T05:07:44.363Z,100954.50
2022-11-05T05:10:11.672Z,100948.72
2022-11-05T05:12:39.571Z,100945.59
2022-11-05T05:15:07.569Z,100959.25
2022-11-05T05:17:34.103Z,100962.31
2022-11-05T05:20:00.651Z,100961.78
2022-11-05T05:22:27.603Z,100931.53
2022-11-05T05:24:54.245Z,100974.91
2022-11-05T05:27:20.747Z,100972.78
2022-11-05T05:29:48.749Z,100975.84
2022-11-05T05:32:15.273Z,100985.06
2022-11-05T05:34:41.843Z,100975.81
2022-11-05T05:37:08.503Z,100975.28
2022-11-05T05:39:35.087Z,100975.47
2022-11-05T05:42:01.570Z,100976.63
2022-11-05T05:44:28.167Z,100965.03
2022-11-05T05:46:56.050Z,100981.34
2022-11-05T05:49:22.591Z,100993.72
2022-11-05T05:51:49.447Z,100982.59
2022-11-05T05:54:16.212Z,100986.03
2022-11-05T05:56:43.248Z,100985.63
2022-11-05T05:59:10.059Z,100993.91
2022-11-05T06:01:36.804Z,100987.84
2022-11-05T06:04:05.084Z,101005.25
2022-11-05T06:06:31.723Z,101002.44
2022-11-05T06:08:58.289Z,100999.72
2022-11-05T06:11:25.400Z,100998.78
2022-11-05T06:13:52.031Z,100972.50
2022-11-05T06:16:18.598Z,101008.66
2022-11-05T06:18:45.760Z,100971.53
2022-11-05T06:21:16.342Z,101006.97
2022-11-05T06:23:44.759Z,100999.81
2022-11-05T06:26:13.140Z,100999.16
2022-11-05T06:28:40.089Z,100970.56
2022-11-05T06:31:06.584Z,101020.59
2022-11-05T06:33:33.401Z,101015.88
2022-11-05T06:36:01.094Z,101026.81
2022-11-05T06:38:32.055Z,101029.53
2022-11-05T06:40:59.696Z,101029.72
2022-11-05T06:43:26.985Z,101034.41
2022-11-05T06:45:53.704Z,101038.91
2022-11-05T06:48:20.421Z,101044.16
2022-11-05T06:50:47.179Z,101030.19
2022-11-05T06:53:14.055Z,101027.00
2022-11-05T06:55:42.125Z,101056.34
2022-11-05T06:58:08.656Z,101062.25
2022-11-05T07:00:35.361Z,101052.34
2022-11-05T07:03:05.597Z,101051.94
2022-11-05T07:05:32.824Z,101066.19
2022-11-05T07:07:59.363Z,101073.09
2022-11-05T07:10:25.978Z,101072.06
2022-11-05T07:12:53.917Z,101071.97
2022-11-05T07:15:20.493Z,101078.16
2022-11-05T07:17:47.104Z,101059.63
2022-11-05T07:20:13.724Z,101059.19
2022-11-05T07:22:40.286Z,101083.13
2022-11-05T07:25:07.677Z,101094.38
2022-11-05T07:27:37.489Z,101071.56
2022-11-05T07:30:07.327Z,101088.94
2022-11-05T07:32:37.670Z,101093.91
2022-11-05T07:35:05.194Z,101100.84
2022-11-05T07:37:31.708Z,101098.75
2022-11-05T07:39:58.475Z,101096.03
2022-11-05T07:42:25.144Z,101066.28
2022-11-05T07:44:51.770Z,101080.97
2022-11-05T07:47:19.759Z,101100.13
2022-11-05T07:49:46.359Z,101099.28
2022-11-05T07:52:12.901Z,101109.59
2022-11-05T07:54:39.571Z,101113.81
2022-11-05T07:57:06.097Z,101112.09
2022-11-05T07:59:32.685Z,101111.19
2022-11-05T08:01:59.510Z,101096.13
2022-11-05T08:04:27.497Z,101120.66
2022-11-05T08:06:54.085Z,101074.16
2022-11-05T08:09:20.816Z,101126.34
2022-11-05T08:11:47.708Z,101092.75
2022-11-05T08:14:14.270Z,101136.06
2022-11-05T08:16:40.960Z,101133.97
2022-11-05T08:19:07.572Z,101138.81
2022-11-05T08:21:35.563Z,101145.13
2022-11-05T08:24:02.128Z,101138.84
2022-11-05T08:26:28.650Z,101141.38
2022-11-05T08:28:55.219Z,101134.44
2022-11-05T08:31:21.724Z,101145.97
2022-11-05T08:33:48.322Z,101147.88
2022-11-05T08:36:14.856Z,101145.53
2022-11-05T08:38:42.816Z,101143.75
2022-11-05T08:41:09.446Z,101114.81
2022-11-05T08:43:36.056Z,101148.00
2022-11-05T08:46:02.857Z,101119.06
2022-11-05T08:48:29.478Z,101132.03
2022-11-05T08:50:55.971Z,101147.19
2022-11-05T08:53:22.918Z,101149.00
2022-11-05T08:55:50.794Z,101150.03
2022-11-05T08:58:18.737Z,101151.50
2022-11-05T09:00:47.043Z,101154.69
2022-11-05T09:03:14.670Z,101150.91
2022-11-05T09:05:42.170Z,101149.53
2022-11-05T09:08:11.012Z,101153.63
2022-11-05T09:10:37.727Z,101142.09
2022-11-05T09:13:13.050Z,101151.25
2022-11-05T09:15:43.467Z,101157.44
2022-11-05T09:18:12.816Z,101153.53
2022-11-05T09:20:39.715Z,101148.78
2022-11-05T09:23:06.703Z,101132.81
2022-11-05T09:25:33.316Z,101089.25
2022-11-05T09:28:13.415Z,101146.84
2022-11-05T09:30:43.578Z,101136.81
2022-11-05T09:33:10.598Z,101101.47
2022-11-05T09:35:38.743Z,101150.47
2022-11-05T09:38:05.502Z,100992.94
2022-11-05T09:40:35.963Z,101155.75
2022-11-05T09:43:03.627Z,101155.28
2022-11-05T09:45:35.303Z,101164.94
2022-11-05T09:48:08.056Z,101144.63
2022-11-05T09:50:39.771Z,101166.13
2022-11-05T09:53:07.356Z,101162.44
2022-11-05T09:55:37.254Z,101158.50
2022-11-05T09:58:13.530Z,101159.84
2022-11-05T10:00:41.995Z,101161.16
2022-11-05T10:03:14.241Z,101163.25
2022-11-05T10:05:41.126Z,101158.81
2022-11-05T10:08:13.895Z,101162.78
2022-11-05T10:10:44.121Z,101168.41
2022-11-05T10:13:19.278Z,101171.19
2022-11-05T10:16:01.315Z,101170.34
2022-11-05T10:18:33.024Z,101177.41
2022-11-05T10:21:00.319Z,101176.69
2022-11-05T10:23:27.790Z,101172.47
2022-11-05T10:25:56.892Z,101178.25
2022-11-05T10:28:25.900Z,101172.47
2022-11-05T10:30:58.348Z,101154.97
2022-11-05T10:33:30.501Z,101175.81
2022-11-05T10:36:03.265Z,101180.47
2022-11-05T10:38:30.184Z,101158.88
2022-11-05T10:41:09.396Z,101179.25
2022-11-05T10:43:42.563Z,101175.50
2022-11-05T10:46:24.433Z,101184.19
2022-11-05T10:48:56.061Z,101175.63
2022-11-05T10:51:22.779Z,101183.22
2022-11-05T10:53:58.708Z,101177.19
2022-11-05T10:56:29.903Z,101137.34
2022-11-05T10:58:58.346Z,101172.31
2022-11-05T11:01:26.868Z,101164.41
2022-11-05T11:04:06.038Z,101165.16
2022-11-05T11:06:35.744Z,101176.09
2022-11-05T11:09:05.703Z,101174.59
2022-11-05T11:11:34.483Z,101160.09
2022-11-05T11:14:04.446Z,101167.41
2022-11-05T11:16:36.471Z,101178.84
2022-11-05T11:19:04.028Z,101179.97
2022-11-05T11:21:31.933Z,101152.72
2022-11-05T11:24:00.354Z,101180.84
2022-11-05T11:26:30.732Z,101175.53
2022-11-05T11:29:00.426Z,101170.00
2022-11-05T11:31:30.203Z,101167.53
2022-11-05T11:34:02.074Z,101161.84
2022-11-05T11:36:34.598Z,101162.19
2022-11-05T11:39:03.035Z,101159.66
2022-11-05T11:41:34.221Z,101155.09
2022-11-05T11:44:04.767Z,101159.84
2022-11-05T11:46:33.725Z,101165.06
2022-11-05T11:49:02.487Z,101172.88
2022-11-05T11:51:35.381Z,101170.97
2022-11-05T11:54:02.897Z,101183.59
2022-11-05T11:56:42.278Z,101173.81
2022-11-05T11:59:35.105Z,101168.03
2022-11-05T12:02:40.895Z,101170.59
2022-11-05T12:05:22.957Z,101156.13
2022-11-05T12:07:52.169Z,101159.97
2022-11-05T12:10:28.383Z,101156.88
2022-11-05T12:13:10.737Z,101164.00
2022-11-05T12:15:47.976Z,101154.75
2022-11-05T12:18:22.313Z,101157.47
2022-11-05T12:21:14.377Z,101144.47
2022-11-05T12:24:04.691Z,101142.69
2022-11-05T12:26:42.558Z,101152.78
2022-11-05T12:29:32.934Z,101152.41
2022-11-05T12:32:24.674Z,101138.75
2022-11-05T12:34:58.338Z,101131.69
2022-11-05T12:37:32.404Z,101154.00
2022-11-05T12:40:18.969Z,101143.66
2022-11-05T12:42:58.519Z,101137.63
2022-11-05T12:45:37.475Z,101128.22
2022-11-05T12:48:27.640Z,101146.19
2022-11-05T12:51:07.864Z,101141.22
2022-11-05T12:53:56.472Z,101145.38
2022-11-05T12:56:30.835Z,101138.44
2022-11-05T12:59:02.792Z,101136.66
2022-11-05T13:01:34.895Z,101134.22
2022-11-05T13:04:06.166Z,101127.25
2022-11-05T13:06:37.635Z,101131.16
2022-11-05T13:09:12.381Z,101112.13
2022-11-05T13:11:45.385Z,101117.06
2022-11-05T13:14:16.057Z,101129.03
2022-11-05T13:16:47.058Z,101137.00
2022-11-05T13:19:18.847Z,101127.91
2022-11-05T13:21:48.068Z,101127.34
2022-11-05T13:24:20.774Z,101106.94
2022-11-05T13:26:52.794Z,101134.31
2022-11-05T13:29:23.304Z,101125.94
2022-11-05T13:31:53.380Z,101118.16
2022-11-05T13:34:20.159Z,101118.50
2022-11-05T13:36:52.313Z,101122.41
2022-11-05T13:39:26.055Z,101123.34
2022-11-05T13:42:30.806Z,101128.94
2022-11-05T13:45:25.802Z,101126.41
2022-11-05T13:48:08.659Z,101101.66
2022-11-05T13:50:52.613Z,101132.34
2022-11-05T13:53:44.004Z,101137.94
2022-11-05T13:56:25.016Z,101138.25
2022-11-05T13:59:04.587Z,101136.47
2022-11-05T14:01:44.485Z,101115.91
2022-11-05T14:04:18.986Z,101129.97
2022-11-05T14:06:46.157Z,101125.97
2022-11-05T14:09:19.910Z,101112.03
2022-11-05T14:11:52.849Z,101103.25
2022-11-05T14:14:22.625Z,101089.53
2022-11-05T14:16:52.248Z,101096.97
2022-11-05T14:19:33.378Z,101092.53
2022-11-05T14:22:00.952Z,101094.75
2022-11-05T14:24:39.396Z,101097.19
2022-11-05T14:27:43.431Z,101099.34
2022-11-05T14:30:41.912Z,101100.75
2022-11-05T14:33:17.652Z,101096.72
2022-11-05T14:35:44.332Z,101099.34
2022-11-05T14:38:23.087Z,101095.38
2022-11-05T14:40:58.024Z,101094.19
2022-11-05T14:43:28.821Z,101090.44
2022-11-05T14:45:58.831Z,101085.06
2022-11-05T14:48:35.117Z,101089.34
2022-11-05T14:51:02.202Z,101088.78
2022-11-05T14:53:32.740Z,101085.66
2022-11-05T14:56:03.115Z,101089.25
2022-11-05T14:58:38.573Z,101088.81
2022-11-05T15:01:06.705Z,101096.28
2022-11-05T15:04:00.942Z,101084.53
2022-11-05T15:06:28.598Z,101078.63
2022-11-05T15:09:16.622Z,101090.66
2022-11-05T15:11:49.901Z,101086.72
2022-11-05T15:14:22.803Z,101078.91
2022-11-05T15:16:52.634Z,101077.88
2022-11-05T15:19:23.279Z,101084.25
2022-11-05T15:21:53.183Z,101089.91
2022-11-05T15:24:20.567Z,101075.56
2022-11-05T15:26:53.933Z,101087.56
2022-11-05T15:29:26.165Z,101089.94
2022-11-05T15:31:53.170Z,101088.66
2022-11-05T15:34:23.259Z,101106.19
2022-11-05T15:36:52.601Z,101101.41
2022-11-05T15:39:31.709Z,101113.03
2022-11-05T15:42:01.977Z,101105.59
2022-11-05T15:44:32.340Z,101082.28
2022-11-05T15:47:07.324Z,101110.34
2022-11-05T15:49:34.229Z,101112.75
2022-11-05T15:52:00.774Z,101120.19
2022-11-05T15:54:31.247Z,101115.50
2022-11-05T15:56:59.473Z,101106.88
2022-11-05T15:59:28.366Z,101100.25
2022-11-05T16:01:58.572Z,101117.31
2022-11-05T16:04:28.505Z,101117.81
2022-11-05T16:06:59.555Z,101119.09
2022-11-05T16:09:28.216Z,101121.25
2022-11-05T16:12:13.940Z,101124.09
2022-11-05T16:14:40.859Z,101118.34
2022-11-05T16:17:18.533Z,101114.25
2022-11-05T16:19:45.908Z,101119.28
2022-11-05T16:22:12.583Z,101115.09
2022-11-05T16:24:39.659Z,101113.88
2022-11-05T16:27:06.656Z,101121.41
2022-11-05T16:29:35.534Z,101124.38
2022-11-05T16:32:04.453Z,101116.22
2022-11-05T16:34:36.942Z,101124.13
2022-11-05T16:37:05.289Z,101101.56
2022-11-05T16:39:32.245Z,101127.00
2022-11-05T16:41:59.061Z,101126.16
2022-11-05T16:44:25.596Z,101110.53
2022-11-05T16:46:52.420Z,101123.38
2022-11-05T16:49:19.026Z,101103.44
2022-11-05T16:51:47.190Z,101124.16
2022-11-05T16:54:13.689Z,101116.72
2022-11-05T16:56:40.384Z,101112.72
2022-11-05T16:59:10.361Z,101122.78
2022-11-05T17:01:39.857Z,101129.09
2022-11-05T17:04:09.424Z,101129.44
2022-11-05T17:06:36.081Z,101140.44
2022-11-05T17:09:03.993Z,101142.13
2022-11-05T17:11:30.567Z,101146.88
2022-11-05T17:13:57.187Z,101144.44
2022-11-05T17:16:25.407Z,101145.03
2022-11-05T17:18:51.953Z,101150.28
2022-11-05T17:21:18.673Z,101148.19
2022-11-05T17:23:45.268Z,101160.53
2022-11-05T17:26:13.846Z,101153.88
2022-11-05T17:28:40.991Z,101162.50
2022-11-05T17:31:09.325Z,101162.84
2022-11-05T17:33:36.040Z,101159.47
2022-11-05T17:36:05.823Z,101143.50
2022-11-05T17:38:32.375Z,101152.16
2022-11-05T17:40:58.907Z,101153.69
2022-11-05T17:43:27.198Z,101161.59
2022-11-05T17:45:53.982Z,101145.97
2022-11-05T17:48:20.904Z,101156.66
2022-11-05T17:50:49.558Z,101157.50
2022-11-05T17:53:18.343Z,101149.00
2022-11-05T17:55:46.289Z,101141.22
2022-11-05T17:58:13.148Z,101161.75
2022-11-05T18:00:43.585Z,101161.53
2022-11-05T18:03:11.980Z,101141.66
2022-11-05T18:05:39.549Z,101160.25
2022-11-05T18:08:06.509Z,101155.94
2022-11-05T18:10:35.646Z,101125.63
2022-11-05T18:13:02.213Z,101149.97
2022-11-05T18:15:28.777Z,101152.09
2022-11-05T18:17:56.654Z,101155.75
2022-11-05T18:20:23.202Z,101157.44
2022-11-05T18:22:50.427Z,101164.69
2022-11-05T18:25:17.625Z,101132.59
2022-11-05T18:27:44.330Z,101161.97
2022-11-05T18:30:12.173Z,101165.66
2022-11-05T18:32:38.792Z,101162.91
2022-11-05T18:35:07.473Z,101158.38
2022-11-05T18:37:34.093Z,101154.16
2022-11-05T18:40:00.603Z,101158.88
2022-11-05T18:42:27.348Z,101148.28
2022-11-05T18:44:53.902Z,101152.16
2022-11-05T18:47:20.407Z,101159.81
2022-11-05T18:49:47.003Z,101163.19
2022-11-05T18:52:15.189Z,101160.66
2022-11-05T18:54:41.749Z,101162.44
2022-11-05T18:57:08.413Z,101158.03
2022-11-05T18:59:38.740Z,101154.56
2022-11-05T19:02:07.460Z,101142.06
2022-11-05T19:04:35.710Z,101156.47
2022-11-05T19:07:05.138Z,101157.31
2022-11-05T19:09:34.557Z,101150.28
2022-11-05T19:12:01.480Z,101149.44
2022-11-05T19:14:28.205Z,101149.44
2022-11-05T19:16:54.697Z,101153.00
2022-11-05T19:19:21.336Z,101143.41
2022-11-05T19:21:47.911Z,101112.47
2022-11-05T19:24:17.573Z,101147.84
2022-11-05T19:26:45.824Z,101148.69
2022-11-05T19:29:12.451Z,101139.09
2022-11-05T19:31:39.087Z,101145.22
2022-11-05T19:34:05.727Z,101151.09
2022-11-05T19:36:33.237Z,101123.34
2022-11-05T19:39:01.804Z,101153.19
2022-11-05T19:41:28.665Z,101116.19
2022-11-05T19:43:56.734Z,101148.88
2022-11-05T19:46:24.722Z,101132.91
2022-11-05T19:48:51.853Z,101147.41
2022-11-05T19:51:20.627Z,101135.13
2022-11-05T19:53:47.193Z,101112.81
2022-11-05T19:56:15.690Z,101143.09
2022-11-05T19:58:42.929Z,101149.31
2022-11-05T20:01:11.864Z,101155.41
2022-11-05T20:03:38.795Z,101152.06
2022-11-05T20:06:07.765Z,101146.91
2022-11-05T20:08:47.615Z,101158.16
2022-11-05T20:11:21.250Z,101149.72
2022-11-05T20:13:47.811Z,101147.31
2022-11-05T20:16:33.006Z,101147.50
2022-11-05T20:18:59.765Z,101153.00
2022-11-05T20:21:26.444Z,101151.00
2022-11-05T20:23:55.300Z,101167.09
2022-11-05T20:26:21.878Z,101174.97
2022-11-05T20:28:49.103Z,101167.41
2022-11-05T20:31:17.554Z,101179.22
2022-11-05T20:33:46.565Z,101179.22
2022-11-05T20:36:15.215Z,101175.94
2022-11-05T20:38:41.891Z,101169.81
2022-11-05T20:41:09.822Z,101160.56
2022-11-05T20:43:37.007Z,101161.09
2022-11-05T20:46:04.269Z,101166.66
2022-11-05T20:48:32.014Z,101173.94
2022-11-05T20:51:05.306Z,101164.78
2022-11-05T20:53:31.911Z,101165.91
2022-11-05T20:55:59.277Z,101172.84
2022-11-05T20:58:28.541Z,101177.69
2022-11-05T21:00:56.060Z,101167.06
2022-11-05T21:03:23.655Z,101189.97
2022-11-05T21:05:52.203Z,101186.63
2022-11-05T21:08:20.534Z,101192.00
2022-11-05T21:10:51.234Z,101192.09
2022-11-05T21:13:18.175Z,101187.03
2022-11-05T21:15:47.939Z,101184.50
2022-11-05T21:18:14.968Z,101163.16
2022-11-05T21:20:41.669Z,101175.03
2022-11-05T21:23:08.261Z,101158.00
2022-11-05T21:25:39.262Z,101159.88
2022-11-05T21:28:06.285Z,101169.56
2022-11-05T21:30:32.999Z,101162.09
2022-11-05T21:32:59.806Z,101143.75
2022-11-05T21:35:26.472Z,101171.00
2022-11-05T21:37:53.104Z,101129.09
2022-11-05T21:40:19.663Z,101182.03
2022-11-05T21:42:47.629Z,101178.97
2022-11-05T21:45:14.182Z,101184.31
2022-11-05T21:47:40.970Z,101175.03
2022-11-05T21:50:08.646Z,101173.66
2022-11-05T21:52:35.176Z,101166.19
2022-11-05T21:55:01.783Z,101154.78
2022-11-05T21:57:28.454Z,101182.13
2022-11-05T21:59:56.614Z,101164.34
2022-11-05T22:02:24.808Z,101158.72
2022-11-05T22:04:53.348Z,101178.59
2022-11-05T22:07:22.200Z,101169.78
2022-11-05T22:09:49.146Z,101176.72
2022-11-05T22:12:16.161Z,101175.03
2022-11-05T22:14:43.491Z,101157.59
2022-11-05T22:17:12.860Z,101159.66
2022-11-05T22:19:39.945Z,101148.81
2022-11-05T22:22:06.906Z,101163.75
2022-11-05T22:24:34.435Z,101144.78
2022-11-05T22:27:03.135Z,101139.00
2022-11-05T22:29:29.945Z,101140.22
2022-11-05T22:31:56.973Z,101133.59
2022-11-05T22:34:25.126Z,101117.22
2022-11-05T22:36:51.983Z,101100.94
2022-11-05T22:39:18.583Z,101085.00
2022-11-05T22:41:45.383Z,101105.25
2022-11-05T22:44:12.118Z,101112.38
2022-11-05T22:46:38.744Z,101125.41
2022-11-05T22:49:05.849Z,101106.28
2022-11-05T22:51:36.766Z,101094.00
2022-11-05T22:54:04.755Z,101061.75
2022-11-05T22:56:35.352Z,101090.66
2022-11-05T22:59:01.966Z,101070.84
2022-11-05T23:01:29.086Z,101092.91
2022-11-05T23:03:57.448Z,101083.34
2022-11-05T23:06:25.557Z,101077.28
2022-11-05T23:08:53.558Z,101072.69
2022-11-05T23:11:22.867Z,101078.94
2022-11-05T23:13:49.471Z,101075.84
2022-11-05T23:16:15.968Z,101073.56
2022-11-05T23:18:42.568Z,101080.16
2022-11-05T23:21:09.089Z,101073.38
2022-11-05T23:23:35.677Z,101073.50
2022-11-05T23:26:03.629Z,101067.50
2022-11-05T23:28:30.242Z,101074.69
2022-11-05T23:30:56.765Z,101071.50
2022-11-05T23:33:23.938Z,101071.31
2022-11-05T23:35:50.473Z,101070.16
2022-11-05T23:38:17.051Z,101078.03
2022-11-05T23:40:43.668Z,101079.16
2022-11-05T23:43:11.864Z,101072.41
2022-11-05T23:45:39.250Z,101069.03
2022-11-05T23:48:07.246Z,101075.19
2022-11-05T23:50:38.566Z,101070.81
2022-11-05T23:53:07.220Z,101069.41
2022-11-05T23:55:33.788Z,101055.16
2022-11-05T23:58:00.628Z,101064.59
